Time;durP1;ratioP1;P1;durP2;ratioP2;P2;SDS_P1;SDS_P2;PMS_P1;PMS_P2;Temp;Humidity;BMP_temperature;BMP_pressure;BME280_temperature;BME280_humidity;BME280_pressure;Samples;Min_cycle;Max_cycle;Signal;HPM_P1;HPM_P2
2023/02/25 00:02:34;;;;;;;6.80;6.10;;;;;;;10.53;58.84;97614.63;7003851;28;20270;-82
2023/02/25 00:05:56;;;;;;;12.03;6.87;;;;;;;10.57;59.34;97617.69;7008567;28;20351;-82
2023/02/25 00:09:17;;;;;;;13.10;7.00;;;;;;;10.65;58.99;97628.94;7007233;28;20234;-82
2023/02/25 00:12:41;;;;;;;10.40;7.20;;;;;;;10.62;58.73;97615.13;7007886;28;20288;-82
2023/02/25 00:16:03;;;;;;;10.70;7.67;;;;;;;10.30;58.62;97594.91;7006792;28;20273;-82
2023/02/25 00:19:25;;;;;;;8.83;7.40;;;;;;;10.70;58.89;97612.06;7006717;28;20281;-82
2023/02/25 00:22:46;;;;;;;8.53;6.70;;;;;;;10.51;58.54;97621.31;7006202;28;20678;-81
2023/02/25 00:26:10;;;;;;;10.53;7.40;;;;;;;10.42;59.45;97623.53;7006850;28;20205;-81
2023/02/25 00:29:33;;;;;;;13.80;9.77;;;;;;;10.47;58.87;97626.34;7005192;28;20233;-81
2023/02/25 00:32:55;;;;;;;9.70;7.43;;;;;;;10.01;58.57;97614.63;7012952;28;20217;-82
2023/02/25 00:36:19;;;;;;;7.57;6.67;;;;;;;10.35;57.60;97603.97;7007112;28;20354;-82
2023/02/25 00:39:43;;;;;;;12.03;7.03;;;;;;;10.28;57.41;97579.00;7008419;28;20229;-82
2023/02/25 00:43:05;;;;;;;8.80;7.10;;;;;;;10.28;56.50;97605.13;7007776;28;20295;-82
2023/02/25 00:46:28;;;;;;;9.80;6.50;;;;;;;10.55;55.52;97617.06;7006189;28;20629;-82
2023/02/25 00:49:51;;;;;;;11.23;6.57;;;;;;;10.31;55.31;97624.31;7007908;28;20712;-82
2023/02/25 00:53:12;;;;;;;9.57;7.10;;;;;;;10.24;55.39;97615.53;7006640;28;20212;-81
2023/02/25 00:56:34;;;;;;;9.17;6.53;;;;;;;10.31;54.79;97636.97;7005282;28;20294;-82
2023/02/25 00:59:55;;;;;;;8.03;5.87;;;;;;;10.17;54.43;97622.88;6999078;28;20291;-82
2023/02/25 01:03:18;;;;;;;8.10;5.70;;;;;;;10.04;54.21;97623.09;7004680;28;20366;-82
2023/02/25 01:06:39;;;;;;;6.90;5.87;;;;;;;10.41;53.88;97610.28;7003981;28;20297;-82
2023/02/25 01:10:01;;;;;;;8.20;5.73;;;;;;;10.20;53.42;97635.91;7002669;28;20234;-81
2023/02/25 01:13:22;;;;;;;8.87;5.63;;;;;;;10.19;53.89;97609.19;7004618;28;20710;-82
2023/02/25 01:16:44;;;;;;;8.00;5.90;;;;;;;10.36;53.70;97629.00;7011145;28;20300;-83
2023/02/25 01:20:11;;;;;;;10.77;5.67;;;;;;;10.42;53.40;97646.94;7017416;28;20275;-82
2023/02/25 01:23:33;;;;;;;7.43;5.50;;;;;;;10.16;53.92;97642.78;7002793;28;20552;-83
2023/02/25 01:26:56;;;;;;;7.13;5.50;;;;;;;10.35;53.75;97655.16;7001144;28;20246;-83
2023/02/25 01:30:18;;;;;;;5.70;5.10;;;;;;;10.17;53.89;97638.25;7000963;28;20255;-83
2023/02/25 01:33:39;;;;;;;7.20;6.10;;;;;;;10.36;53.78;97654.09;6999934;28;20237;-84
2023/02/25 01:37:02;;;;;;;8.47;5.60;;;;;;;10.10;54.07;97648.28;7000193;28;20292;-83
2023/02/25 01:40:24;;;;;;;11.10;5.57;;;;;;;10.35;53.77;97639.00;7000160;28;20697;-83
2023/02/25 01:44:04;;;;;;;7.17;5.37;;;;;;;10.16;52.30;97658.16;7000539;28;20296;-82
2023/02/25 01:47:27;;;;;;;6.23;4.70;;;;;;;9.83;53.32;97684.66;6999312;28;20767;-83
2023/02/25 01:50:51;;;;;;;7.43;4.97;;;;;;;10.16;52.09;97660.84;7001002;28;20225;-83
2023/02/25 01:54:14;;;;;;;6.37;4.40;;;;;;;9.91;52.94;97674.41;7001126;28;20306;-85
2023/02/25 01:57:36;;;;;;;7.00;4.70;;;;;;;9.95;52.73;97677.47;7000467;28;20278;-83
2023/02/25 02:00:58;;;;;;;7.83;4.60;;;;;;;10.18;52.66;97667.63;7000431;28;20213;-83
2023/02/25 02:04:20;;;;;;;10.37;4.43;;;;;;;10.07;52.32;97643.34;7000981;28;20304;-83
2023/02/25 02:07:41;;;;;;;7.00;4.77;;;;;;;9.53;53.33;97659.59;7000531;28;20294;-84
2023/02/25 02:11:05;;;;;;;4.30;3.90;;;;;;;9.91;52.03;97625.13;6999316;28;20233;-83
2023/02/25 02:14:28;;;;;;;5.37;3.97;;;;;;;9.91;51.64;97646.66;7000563;28;20239;-83
2023/02/25 02:17:53;;;;;;;5.37;4.37;;;;;;;10.06;51.74;97641.72;6999538;28;20229;-83
2023/02/25 02:21:25;;;;;;;6.00;4.60;;;;;;;9.95;51.35;97664.84;7000505;28;20296;-83
2023/02/25 02:25:17;;;;;;;6.23;4.43;;;;;;;10.11;51.74;97661.50;7001237;28;20557;-83
2023/02/25 02:29:20;;;;;;;5.20;4.23;;;;;;;10.20;51.32;97660.13;6999735;28;20240;-83
2023/02/25 02:32:46;;;;;;;6.23;4.37;;;;;;;10.25;51.54;97660.28;6983185;28;20204;-83
2023/02/25 02:36:13;;;;;;;6.97;4.23;;;;;;;10.31;51.89;97663.91;7004794;28;20250;-84
2023/02/25 02:39:44;;;;;;;8.87;4.70;;;;;;;10.16;51.73;97668.91;7008379;28;20368;-84
2023/02/25 02:43:11;;;;;;;6.37;4.43;;;;;;;9.97;51.50;97684.25;7007104;28;20201;-83
2023/02/25 02:46:37;;;;;;;8.10;4.50;;;;;;;9.47;50.99;97685.56;7004153;28;20221;-83
2023/02/25 02:50:03;;;;;;;4.87;3.93;;;;;;;9.88;51.82;97700.97;7005045;28;20230;-82
2023/02/25 02:53:29;;;;;;;5.43;3.60;;;;;;;9.85;50.77;97707.63;7004579;28;20282;-83
2023/02/25 02:56:52;;;;;;;4.73;3.60;;;;;;;9.44;50.78;97691.38;7003061;28;20290;-82
2023/02/25 03:00:17;;;;;;;7.13;3.70;;;;;;;9.11;51.14;97599.50;7004085;28;20229;-83
2023/02/25 03:03:40;;;;;;;4.23;3.10;;;;;;;9.51;50.69;97688.63;7011023;28;20205;-82
2023/02/25 03:07:07;;;;;;;4.50;3.50;;;;;;;9.17;51.83;97660.44;7011753;28;20208;-84
2023/02/25 03:10:29;;;;;;;6.17;3.90;;;;;;;9.44;50.97;97695.91;7010014;28;20216;-83
2023/02/25 03:13:51;;;;;;;6.03;4.47;;;;;;;9.86;50.54;97690.41;7012263;28;20677;-83
2023/02/25 03:17:15;;;;;;;6.40;3.33;;;;;;;9.30;49.39;97644.16;7010802;28;20209;-84
2023/02/25 03:20:38;;;;;;;5.63;3.20;;;;;;;9.10;51.08;97709.97;6983351;28;20268;-83
2023/02/25 03:24:02;;;;;;;5.07;3.57;;;;;;;8.54;51.46;97647.44;6998571;28;20797;-83
2023/02/25 03:27:28;;;;;;;9.27;3.50;;;;;;;9.37;51.09;97705.94;7010314;28;20553;-84
2023/02/25 03:30:54;;;;;;;8.20;3.80;;;;;;;8.95;50.85;97704.09;7009603;28;20316;-84
2023/02/25 03:34:18;;;;;;;9.03;4.03;;;;;;;9.49;50.64;97699.59;7010687;28;20288;-84
2023/02/25 03:37:42;;;;;;;5.30;3.53;;;;;;;9.69;50.37;97702.06;7008130;28;20229;-83
2023/02/25 03:41:06;;;;;;;5.20;3.20;;;;;;;9.46;50.39;97708.09;7001284;28;20720;-84
2023/02/25 03:44:31;;;;;;;8.10;3.30;;;;;;;9.10;51.19;97718.03;7001309;28;20292;-84
2023/02/25 03:47:52;;;;;;;12.53;3.77;;;;;;;8.99;52.16;97710.69;7001371;28;20316;-84
2023/02/25 03:51:16;;;;;;;5.27;3.57;;;;;;;9.26;51.60;97710.19;7001154;28;20222;-84
2023/02/25 03:54:37;;;;;;;8.23;3.57;;;;;;;9.56;50.86;97718.34;7001850;28;20250;-83
2023/02/25 03:58:00;;;;;;;9.80;3.87;;;;;;;9.02;51.54;97685.25;7000133;28;20719;-83
2023/02/25 04:01:26;;;;;;;6.77;3.63;;;;;;;9.17;51.74;97703.44;7001440;28;20691;-84
2023/02/25 04:04:47;;;;;;;7.03;3.83;;;;;;;9.20;51.84;97719.16;7001427;28;20283;-83
2023/02/25 04:08:14;;;;;;;4.93;3.97;;;;;;;9.20;51.97;97735.28;6979098;28;20221;-83
2023/02/25 04:11:36;;;;;;;7.90;4.10;;;;;;;9.32;52.17;97730.00;6995240;28;20190;-84
2023/02/25 04:14:58;;;;;;;7.43;3.63;;;;;;;8.84;52.57;97690.59;7001140;28;20240;-82
2023/02/25 04:18:20;;;;;;;5.97;3.80;;;;;;;9.46;51.55;97743.06;6999331;28;20226;-83
2023/02/25 04:21:41;;;;;;;7.07;4.20;;;;;;;9.57;51.40;97754.97;7000766;28;20708;-82
2023/02/25 04:25:03;;;;;;;6.33;3.87;;;;;;;9.58;51.74;97759.31;7001203;28;20210;-84
2023/02/25 04:28:25;;;;;;;5.73;3.50;;;;;;;9.44;51.40;97758.63;7000270;28;20720;-84
2023/02/25 04:31:48;;;;;;;4.93;3.60;;;;;;;9.40;51.27;97751.22;7000619;28;20577;-84
2023/02/25 04:35:12;;;;;;;5.13;3.40;;;;;;;9.56;50.88;97756.03;7000120;28;20337;-84
2023/02/25 04:38:33;;;;;;;4.87;3.00;;;;;;;9.33;50.31;97753.97;6976005;28;20698;-83
2023/02/25 04:41:55;;;;;;;4.27;2.90;;;;;;;9.18;49.99;97732.00;6972118;28;20271;-83
2023/02/25 04:45:17;;;;;;;3.93;2.90;;;;;;;9.53;49.93;97754.59;6974109;28;20219;-84
2023/02/25 04:48:39;;;;;;;7.07;3.17;;;;;;;9.44;50.06;97755.09;6991775;28;20289;-84
2023/02/25 04:52:01;;;;;;;5.50;2.93;;;;;;;9.34;49.13;97761.00;7001904;28;20342;-82
2023/02/25 04:55:22;;;;;;;5.53;3.30;;;;;;;9.60;50.06;97765.28;7007784;28;20774;-82
2023/02/25 04:58:44;;;;;;;6.60;3.00;;;;;;;9.24;49.18;97717.69;6985434;28;20236;-82
2023/02/25 05:02:06;;;;;;;5.77;2.80;;;;;;;9.52;48.89;97769.09;6975338;28;20287;-82
2023/02/25 05:05:29;;;;;;;3.80;2.67;;;;;;;9.39;49.46;97769.22;6994795;28;20206;-82
2023/02/25 05:08:50;;;;;;;5.27;2.70;;;;;;;9.65;48.88;97757.38;6997301;28;20256;-82
2023/02/25 05:12:12;;;;;;;5.10;3.00;;;;;;;9.53;48.64;97762.69;6996340;28;20205;-82
2023/02/25 05:15:34;;;;;;;8.40;3.00;;;;;;;9.46;48.45;97740.38;6997284;28;20331;-82
2023/02/25 05:18:56;;;;;;;5.00;2.93;;;;;;;9.68;48.19;97754.25;6996728;28;20885;-82
2023/02/25 05:22:19;;;;;;;4.97;2.60;;;;;;;9.48;48.68;97767.91;6997039;28;20219;-82
2023/02/25 05:25:41;;;;;;;6.13;2.50;;;;;;;9.40;48.19;97760.09;6976983;28;20351;-82
2023/02/25 05:29:02;;;;;;;7.23;2.90;;;;;;;9.13;48.68;97755.22;6980398;28;20447;-82
2023/02/25 05:32:24;;;;;;;4.97;3.07;;;;;;;9.45;47.59;97759.47;6974909;28;20270;-82
2023/02/25 05:35:45;;;;;;;3.40;2.90;;;;;;;9.72;47.37;97739.25;6998284;28;20271;-83
2023/02/25 05:39:09;;;;;;;6.53;2.97;;;;;;;9.12;47.99;97737.44;6998380;28;20221;-85
2023/02/25 05:42:31;;;;;;;3.97;2.80;;;;;;;9.46;47.92;97767.28;6998979;28;20577;-83
2023/02/25 05:45:53;;;;;;;6.20;2.70;;;;;;;9.36;47.80;97758.09;7000329;28;20217;-83
2023/02/25 05:49:15;;;;;;;4.30;2.87;;;;;;;9.68;48.07;97776.56;6997683;28;20240;-84
2023/02/25 05:52:36;;;;;;;6.27;2.63;;;;;;;9.60;47.80;97778.72;6998561;28;20205;-84
2023/02/25 05:56:02;;;;;;;4.47;2.60;;;;;;;9.72;47.98;97768.88;6998618;28;20262;-82
2023/02/25 05:59:24;;;;;;;5.97;3.00;;;;;;;9.43;47.43;97772.28;6998226;28;20593;-82
2023/02/25 06:02:45;;;;;;;5.27;2.57;;;;;;;9.49;47.61;97779.47;7006584;28;20239;-82
2023/02/25 06:06:07;;;;;;;5.20;2.67;;;;;;;8.95;47.94;97773.19;6974918;28;20220;-82
2023/02/25 06:09:30;;;;;;;6.17;3.00;;;;;;;9.39;47.59;97781.88;6974264;28;20371;-82
2023/02/25 06:12:53;;;;;;;5.03;2.70;;;;;;;9.55;47.45;97789.34;6971734;28;20209;-84
2023/02/25 06:16:15;;;;;;;6.73;2.80;;;;;;;9.37;47.15;97786.63;6982917;28;20223;-83
2023/02/25 06:19:36;;;;;;;5.20;2.53;;;;;;;9.39;46.89;97784.56;7004562;28;20337;-82
2023/02/25 06:22:58;;;;;;;3.73;2.87;;;;;;;9.58;46.28;97794.28;7001620;28;20750;-84
2023/02/25 06:26:19;;;;;;;4.73;2.80;;;;;;;9.61;46.33;97785.75;6999346;28;20265;-81
2023/02/25 06:29:42;;;;;;;6.17;2.80;;;;;;;8.39;46.26;97644.28;7002531;28;20293;-81
2023/02/25 06:33:04;;;;;;;4.90;2.67;;;;;;;9.21;45.60;97806.03;7000291;28;20295;-81
2023/02/25 06:36:25;;;;;;;13.93;2.93;;;;;;;9.61;45.66;97796.50;7003731;28;20256;-81
2023/02/25 06:39:47;;;;;;;3.77;2.20;;;;;;;9.71;45.17;97804.91;7007873;28;20370;-83
2023/02/25 06:43:09;;;;;;;3.07;2.50;;;;;;;9.62;44.79;97807.06;7008913;28;20271;-83
2023/02/25 06:46:32;;;;;;;4.87;2.57;;;;;;;9.56;45.01;97772.19;7004741;28;20354;-81
2023/02/25 06:49:53;;;;;;;5.23;2.73;;;;;;;9.52;44.87;97797.88;7001741;28;20235;-82
2023/02/25 06:53:15;;;;;;;7.03;3.20;;;;;;;9.35;45.81;97807.56;6999197;28;20231;-82
2023/02/25 06:56:36;;;;;;;4.07;2.53;;;;;;;9.49;44.69;97766.03;7010690;28;20214;-81
2023/02/25 06:59:58;;;;;;;7.43;2.73;;;;;;;9.29;45.16;97757.34;7006182;28;20270;-82
2023/02/25 07:03:21;;;;;;;4.20;2.43;;;;;;;9.51;45.78;97804.31;6997677;28;20275;-81
2023/02/25 07:06:42;;;;;;;4.83;2.60;;;;;;;9.57;45.39;97812.28;6997718;28;20349;-83
2023/02/25 07:10:05;;;;;;;3.47;2.30;;;;;;;9.50;46.19;97810.72;6984552;28;20269;-81
2023/02/25 07:13:26;;;;;;;4.07;2.53;;;;;;;9.64;45.80;97815.72;7004895;28;20872;-82
2023/02/25 07:16:48;;;;;;;10.13;3.03;;;;;;;9.48;45.84;97821.72;6999633;28;20235;-82
2023/02/25 07:20:12;;;;;;;3.40;2.83;;;;;;;9.37;46.36;97818.91;6993760;28;20749;-81
2023/02/25 07:23:34;;;;;;;2.37;2.13;;;;;;;9.24;47.13;97802.91;7005088;28;20229;-81
2023/02/25 07:26:55;;;;;;;5.77;2.63;;;;;;;9.43;45.56;97828.78;7006357;28;20351;-82
2023/02/25 07:30:17;;;;;;;7.53;2.53;;;;;;;9.29;46.58;97821.88;7012202;28;20275;-81
2023/02/25 07:33:40;;;;;;;7.97;2.33;;;;;;;9.21;45.99;97812.22;7004487;28;20229;-81
2023/02/25 07:37:03;;;;;;;3.97;2.43;;;;;;;9.40;45.50;97807.72;7002552;28;20569;-81
2023/02/25 07:40:24;;;;;;;4.33;2.93;;;;;;;9.45;44.69;97789.06;7003323;28;20802;-81
2023/02/25 07:43:46;;;;;;;6.60;3.10;;;;;;;9.56;44.92;97785.63;7010075;28;20289;-82
2023/02/25 07:47:08;;;;;;;4.13;2.93;;;;;;;9.52;45.41;97828.28;7009973;28;20697;-83
2023/02/25 07:50:29;;;;;;;2.57;2.23;;;;;;;9.28;46.05;97829.13;7008329;28;20322;-85
2023/02/25 07:53:56;;;;;;;4.60;2.67;;;;;;;9.61;44.05;97835.03;7002996;28;20348;-81
2023/02/25 07:57:18;;;;;;;6.07;2.43;;;;;;;9.30;44.56;97835.13;6999921;28;20696;-83
2023/02/25 08:00:40;;;;;;;2.70;2.50;;;;;;;8.39;46.93;97802.72;7000421;28;20205;-82
2023/02/25 08:04:04;;;;;;;5.17;2.77;;;;;;;8.86;46.25;97815.63;7001613;28;20213;-84
2023/02/25 08:07:25;;;;;;;3.23;2.30;;;;;;;8.53;47.21;97780.13;7000288;28;20207;-82
2023/02/25 08:10:48;;;;;;;4.03;2.60;;;;;;;9.10;46.71;97841.72;6997914;28;20315;-83
2023/02/25 08:14:10;;;;;;;5.63;2.70;;;;;;;9.39;46.26;97841.84;6980653;28;20295;-81
2023/02/25 08:17:34;;;;;;;9.50;2.40;;;;;;;9.18;46.63;97838.75;6987863;28;20222;-82
2023/02/25 08:20:57;;;;;;;3.30;2.57;;;;;;;9.53;45.82;97818.34;6998591;28;20292;-83
2023/02/25 08:24:19;;;;;;;4.40;2.37;;;;;;;9.56;44.61;97826.00;6998402;28;20215;-83
2023/02/25 08:27:42;;;;;;;7.13;2.77;;;;;;;10.22;44.15;97826.91;6997251;28;20237;-84
2023/02/25 08:31:06;;;;;;;8.23;2.77;;;;;;;10.29;43.88;97833.03;6998349;28;20224;-81
2023/02/25 08:34:28;;;;;;;13.93;2.83;;;;;;;9.92;43.10;97839.47;6990934;28;20198;-83
2023/02/25 08:37:50;;;;;;;2.83;2.13;;;;;;;10.01;41.87;97838.94;6970442;28;20277;-80
2023/02/25 08:41:12;;;;;;;5.93;2.67;;;;;;;10.19;41.98;97830.03;6972089;28;20198;-82
2023/02/25 08:44:35;;;;;;;3.53;2.27;;;;;;;9.79;42.49;97826.97;6971844;28;20234;-82
2023/02/25 08:47:57;;;;;;;6.07;2.70;;;;;;;10.27;42.04;97817.09;6990773;28;20691;-80
2023/02/25 08:51:19;;;;;;;6.03;3.60;;;;;;;10.18;42.68;97814.94;6999148;28;20380;-81
2023/02/25 08:54:41;;;;;;;4.70;2.40;;;;;;;10.91;42.19;97829.84;6999470;28;20718;-80
2023/02/25 08:58:02;;;;;;;7.40;2.90;;;;;;;11.16;41.37;97833.22;7001185;28;20267;-80
2023/02/25 09:01:32;;;;;;;2.63;2.40;;;;;;;10.97;40.44;97821.69;7004576;28;20205;-82
2023/02/25 09:04:59;;;;;;;7.80;2.23;;;;;;;11.29;40.13;97828.44;7007284;28;20209;-79
2023/02/25 09:08:20;;;;;;;9.73;2.80;;;;;;;11.63;39.41;97797.13;6988302;28;20222;-79
2023/02/25 09:11:43;;;;;;;4.80;2.67;;;;;;;12.25;39.19;97804.41;6970621;28;20222;-80
2023/02/25 09:15:06;;;;;;;4.70;2.37;;;;;;;12.45;39.01;97810.22;6972939;28;20280;-82
2023/02/25 09:18:29;;;;;;;8.57;3.33;;;;;;;12.66;38.51;97817.63;6972360;28;20230;-81
2023/02/25 09:21:51;;;;;;;2.70;2.33;;;;;;;12.33;38.68;97817.56;6970265;28;20563;-81
2023/02/25 09:25:13;;;;;;;2.43;2.23;;;;;;;11.61;39.29;97820.81;6972647;28;20238;-80
2023/02/25 09:28:35;;;;;;;3.33;2.10;;;;;;;11.73;37.54;97816.25;6980258;28;20226;-81
2023/02/25 09:31:57;;;;;;;5.90;2.87;;;;;;;12.11;37.08;97797.63;6989509;28;20657;-81
2023/02/25 09:35:19;;;;;;;8.10;3.37;;;;;;;12.37;37.67;97805.19;7001791;28;20297;-78
2023/02/25 09:38:42;;;;;;;3.20;2.30;;;;;;;12.55;36.49;97796.88;7001642;28;20307;-82
2023/02/25 09:42:08;;;;;;;3.97;2.10;;;;;;;13.15;35.89;97795.31;7001484;28;20213;-83
2023/02/25 09:45:31;;;;;;;2.10;1.90;;;;;;;11.98;35.06;97806.00;6983415;28;20839;-84
2023/02/25 09:48:55;;;;;;;2.17;1.50;;;;;;;12.18;34.50;97801.00;6999388;28;20313;-86
2023/02/25 09:52:23;;;;;;;2.17;1.67;;;;;;;12.61;34.21;97793.19;6998799;28;20234;-84
2023/02/25 09:55:48;;;;;;;3.27;2.00;;;;;;;12.03;35.28;97779.09;6998306;28;20192;-81
2023/02/25 09:59:13;;;;;;;4.50;1.90;;;;;;;12.19;35.99;97811.59;6999984;28;20225;-81
2023/02/25 10:02:37;;;;;;;8.57;1.90;;;;;;;12.67;35.36;97808.47;7004010;28;20185;-83
2023/02/25 10:06:03;;;;;;;3.90;1.70;;;;;;;12.53;35.65;97793.59;7004927;28;20201;-85
2023/02/25 10:09:32;;;;;;;2.77;1.63;;;;;;;12.60;35.91;97802.38;6970797;28;20288;-83
2023/02/25 10:12:57;;;;;;;1.77;1.60;;;;;;;12.22;34.63;97799.50;6994610;28;20225;-84
2023/02/25 10:16:32;;;;;;;1.67;1.53;;;;;;;11.60;35.04;97778.69;6973375;28;20644;-83
2023/02/25 10:20:04;;;;;;;2.50;1.60;;;;;;;11.90;34.25;97811.75;6972319;28;20311;-80
2023/02/25 10:23:39;;;;;;;2.93;1.90;;;;;;;11.94;34.60;97815.63;6996554;28;20284;-82
2023/02/25 10:27:10;;;;;;;2.50;1.90;;;;;;;11.55;34.72;97802.84;6999810;28;20189;-82
2023/02/25 10:30:36;;;;;;;4.13;1.67;;;;;;;11.10;35.76;97813.38;6999301;28;20626;-81
2023/02/25 10:34:02;;;;;;;2.60;1.90;;;;;;;11.13;34.84;97745.47;6999115;28;20284;-83
2023/02/25 10:37:31;;;;;;;3.97;1.60;;;;;;;10.55;35.55;97752.66;6997363;28;20201;-84
2023/02/25 10:40:56;;;;;;;1.83;1.70;;;;;;;11.00;36.21;97806.91;6997634;28;20280;-84
2023/02/25 10:44:19;;;;;;;4.83;2.50;;;;;;;11.31;35.16;97774.22;6996660;28;20210;-80
2023/02/25 10:47:42;;;;;;;1.70;1.60;;;;;;;10.24;37.21;97760.16;6995864;28;20241;-81
2023/02/25 10:51:08;;;;;;;2.10;1.73;;;;;;;11.16;36.36;97793.56;6997239;28;20222;-82
2023/02/25 10:54:31;;;;;;;3.67;2.40;;;;;;;11.45;36.25;97792.63;7002964;28;20214;-80
2023/02/25 10:57:53;;;;;;;2.33;1.80;;;;;;;11.27;36.33;97773.06;7000858;28;20312;-80
2023/02/25 11:01:17;;;;;;;5.67;1.80;;;;;;;11.00;36.94;97793.44;7000365;28;20567;-79
2023/02/25 11:04:39;;;;;;;4.53;1.73;;;;;;;10.65;37.82;97790.66;7001400;28;20205;-81
2023/02/25 11:08:01;;;;;;;7.70;1.97;;;;;;;10.67;37.01;97782.31;6999209;28;20229;-80
2023/02/25 11:11:24;;;;;;;3.13;1.70;;;;;;;11.28;36.15;97750.41;7001366;28;20225;-79
2023/02/25 11:14:46;;;;;;;2.23;1.80;;;;;;;11.73;36.10;97781.97;7000975;28;20292;-80
2023/02/25 11:18:24;;;;;;;3.47;1.83;;;;;;;11.83;36.64;97779.50;7001006;28;20355;-79
2023/02/25 11:21:46;;;;;;;3.00;2.20;;;;;;;12.26;35.20;97779.84;7001125;28;20288;-79
2023/02/25 11:25:16;;;;;;;3.53;1.83;;;;;;;12.09;35.01;97770.03;7003869;28;20719;-79
2023/02/25 11:28:40;;;;;;;2.07;1.87;;;;;;;12.33;34.96;97768.91;7005643;28;20379;-79
2023/02/25 11:32:08;;;;;;;2.70;2.27;;;;;;;12.30;34.07;97767.50;7005439;28;20777;-80
2023/02/25 11:35:34;;;;;;;2.13;1.90;;;;;;;11.88;35.84;97776.06;7011551;28;20296;-80
2023/02/25 11:39:07;;;;;;;4.53;2.40;;;;;;;10.91;36.09;97757.88;7010273;28;20299;-80
2023/02/25 11:42:30;;;;;;;2.37;2.17;;;;;;;11.69;36.74;97786.19;7005075;28;20686;-79
2023/02/25 11:45:54;;;;;;;5.43;2.37;;;;;;;11.25;37.55;97769.75;7001198;28;20214;-79
2023/02/25 11:49:22;;;;;;;5.67;1.90;;;;;;;11.27;38.77;97781.16;7004890;28;20222;-81
2023/02/25 11:52:47;;;;;;;2.50;2.17;;;;;;;10.74;39.75;97791.97;7004025;28;20265;-81
2023/02/25 11:56:12;;;;;;;4.43;2.07;;;;;;;10.60;40.01;97785.13;7001605;28;20292;-80
2023/02/25 11:59:37;;;;;;;4.00;2.20;;;;;;;10.68;39.46;97787.50;7000594;28;20234;-81
2023/02/25 12:03:26;;;;;;;3.73;2.40;;;;;;;10.51;39.12;97770.31;6999209;28;20208;-81
2023/02/25 12:07:07;;;;;;;3.70;2.57;;;;;;;10.89;40.08;97759.16;6984007;28;20258;-82
2023/02/25 12:10:44;;;;;;;5.83;2.47;;;;;;;10.79;39.53;97740.88;6998906;28;20333;-81
2023/02/25 12:14:32;;;;;;;4.57;2.50;;;;;;;10.95;38.61;97771.72;6998190;28;20251;-82
2023/02/25 12:18:26;;;;;;;2.57;2.07;;;;;;;11.47;38.15;97760.03;6988830;28;20698;-82
2023/02/25 12:22:27;;;;;;;2.27;1.90;;;;;;;10.54;38.60;97775.28;6988484;28;20198;-83
2023/02/25 12:25:52;;;;;;;3.23;2.27;;;;;;;10.81;38.98;97762.22;6978072;28;20216;-81
2023/02/25 12:29:31;;;;;;;3.80;2.20;;;;;;;10.83;39.62;97773.56;7014447;28;20382;-81
2023/02/25 12:33:01;;;;;;;3.03;2.30;;;;;;;11.26;38.54;97768.69;7010089;28;20612;-81
2023/02/25 12:36:34;;;;;;;4.90;2.83;;;;;;;10.95;39.06;97767.16;7007040;28;20229;-82
2023/02/25 12:40:05;;;;;;;7.50;3.20;;;;;;;10.64;40.17;97789.00;7002307;28;20289;-80
2023/02/25 12:43:35;;;;;;;3.87;2.67;;;;;;;10.54;40.90;97780.66;6985299;28;20196;-81
2023/02/25 12:47:15;;;;;;;9.60;2.93;;;;;;;10.42;42.89;97795.97;6990370;28;20229;-81
2023/02/25 12:50:56;;;;;;;3.07;2.70;;;;;;;9.04;48.03;97799.56;6980498;28;20209;-81
2023/02/25 12:54:33;;;;;;;2.93;2.40;;;;;;;9.12;46.93;97796.59;6988471;28;20720;-83
2023/02/25 12:58:03;;;;;;;3.97;2.80;;;;;;;9.73;46.49;97797.41;6976540;28;20222;-83
2023/02/25 13:01:38;;;;;;;8.97;2.93;;;;;;;10.46;44.91;97783.66;6975648;28;20208;-81
2023/02/25 13:05:13;;;;;;;7.20;2.87;;;;;;;10.09;45.77;97765.16;6975533;28;20255;-82
2023/02/25 13:08:54;;;;;;;4.93;2.97;;;;;;;10.32;45.38;97768.75;6974576;28;20279;-81
2023/02/25 13:12:26;;;;;;;3.33;3.00;;;;;;;10.56;45.62;97766.97;6987273;28;20260;-82
2023/02/25 13:15:57;;;;;;;4.23;3.10;;;;;;;10.25;45.92;97660.28;6993387;28;20261;-83
2023/02/25 13:19:48;;;;;;;4.93;2.50;;;;;;;10.10;45.67;97747.94;7004006;28;20278;-80
2023/02/25 13:23:22;;;;;;;4.23;2.20;;;;;;;10.34;47.26;97763.94;6987822;28;20201;-79
2023/02/25 13:27:32;;;;;;;4.07;3.27;;;;;;;10.80;45.18;97761.38;6970314;28;20198;-80
2023/02/25 13:30:58;;;;;;;3.63;3.17;;;;;;;11.04;43.77;97765.75;6971391;28;20198;-80
2023/02/25 13:34:27;;;;;;;5.43;3.63;;;;;;;10.53;42.63;97746.69;6972042;28;20195;-80
2023/02/25 13:38:00;;;;;;;6.77;2.27;;;;;;;10.19;44.02;97778.88;6969935;28;20245;-80
2023/02/25 13:41:41;;;;;;;6.67;2.93;;;;;;;10.27;44.52;97786.66;6982760;28;20186;-79
2023/02/25 13:45:40;;;;;;;4.50;2.50;;;;;;;10.48;43.38;97761.88;6996868;28;20220;-80
2023/02/25 13:49:48;;;;;;;6.20;2.80;;;;;;;10.86;43.78;97763.16;6996194;28;20225;-79
2023/02/25 13:53:21;;;;;;;5.97;3.07;;;;;;;10.44;44.38;97755.31;6997014;28;20231;-80
2023/02/25 13:56:55;;;;;;;7.80;3.50;;;;;;;10.81;44.38;97754.94;6996338;28;20324;-80
2023/02/25 14:00:34;;;;;;;7.00;3.60;;;;;;;10.68;42.83;97735.47;6996808;28;20285;-79
2023/02/25 14:04:24;;;;;;;5.97;3.47;;;;;;;10.87;42.43;97707.34;6997033;28;20257;-80
2023/02/25 14:08:00;;;;;;;3.43;3.00;;;;;;;11.10;41.85;97742.44;6996082;28;20227;-79
2023/02/25 14:11:36;;;;;;;4.37;2.27;;;;;;;11.30;41.45;97745.59;6997210;28;20278;-80
2023/02/25 14:15:18;;;;;;;4.87;2.40;;;;;;;11.16;41.09;97730.72;6997101;28;20191;-81
2023/02/25 14:18:51;;;;;;;5.07;2.50;;;;;;;11.01;41.51;97698.81;6997038;28;20272;-79
2023/02/25 14:22:29;;;;;;;4.13;2.80;;;;;;;11.32;40.67;97736.22;6997507;28;20606;-80
2023/02/25 14:26:16;;;;;;;5.03;3.00;;;;;;;11.02;40.83;97742.75;6997334;28;20726;-80
2023/02/25 14:29:51;;;;;;;3.27;2.60;;;;;;;11.48;39.88;97729.25;7002967;28;20214;-80
2023/02/25 14:33:36;;;;;;;7.77;2.70;;;;;;;11.79;39.75;97732.41;7003040;28;20209;-80
2023/02/25 14:37:07;;;;;;;3.10;2.40;;;;;;;11.73;39.30;97733.38;6985596;28;20213;-80
2023/02/25 14:40:34;;;;;;;4.83;2.53;;;;;;;11.57;39.08;97690.88;6991867;28;20210;-84
2023/02/25 14:43:57;;;;;;;5.03;2.80;;;;;;;11.96;38.56;97735.19;6996534;28;20684;-80
2023/02/25 14:47:25;;;;;;;4.60;2.83;;;;;;;11.95;38.75;97725.44;7002534;28;20273;-80
2023/02/25 14:50:53;;;;;;;8.07;2.90;;;;;;;11.55;39.66;97727.25;7000528;28;20330;-79
2023/02/25 14:54:41;;;;;;;4.40;2.60;;;;;;;11.74;39.78;97731.50;7000896;28;20250;-79
2023/02/25 14:58:23;;;;;;;5.17;2.93;;;;;;;11.24;39.56;97741.97;6998301;28;20282;-79
2023/02/25 15:02:18;;;;;;;4.97;2.40;;;;;;;11.33;39.73;97748.63;6974998;28;20297;-80
2023/02/25 15:05:54;;;;;;;6.50;3.03;;;;;;;11.37;39.24;97752.53;6937376;28;20196;-79
2023/02/25 15:09:45;;;;;;;3.93;2.30;;;;;;;11.32;39.83;97748.88;7001036;28;20711;-80
2023/02/25 15:13:30;;;;;;;3.27;2.40;;;;;;;11.21;39.63;97755.91;6991240;28;20674;-81
2023/02/25 15:17:18;;;;;;;3.47;2.57;;;;;;;11.07;39.60;97754.50;6992990;28;20636;-81
2023/02/25 15:20:40;;;;;;;5.73;3.03;;;;;;;11.48;39.29;97759.78;6995505;28;20320;-80
2023/02/25 15:24:04;;;;;;;5.50;3.30;;;;;;;11.26;38.70;97745.25;6993270;28;20267;-80
2023/02/25 15:27:42;;;;;;;3.43;2.70;;;;;;;10.83;39.64;97771.72;6981629;28;20263;-81
2023/02/25 15:31:27;;;;;;;5.93;3.00;;;;;;;11.08;38.60;97763.41;7000233;28;20227;-80
2023/02/25 15:34:58;;;;;;;7.53;2.80;;;;;;;11.01;38.01;97751.91;7005300;28;20665;-79
2023/02/25 15:38:21;;;;;;;5.97;3.60;;;;;;;11.30;37.72;97773.41;7003008;28;20237;-80
2023/02/25 15:41:45;;;;;;;6.10;2.20;;;;;;;10.89;37.45;97780.75;7005706;28;20888;-81
2023/02/25 15:45:36;;;;;;;5.30;2.33;;;;;;;11.29;38.04;97776.34;7000893;28;20666;-82
2023/02/25 15:49:15;;;;;;;6.87;2.23;;;;;;;10.99;38.40;97767.53;7000100;28;20229;-81
2023/02/25 15:52:56;;;;;;;5.73;2.77;;;;;;;10.84;38.63;97776.06;7000280;28;20225;-81
2023/02/25 15:56:29;;;;;;;5.23;2.93;;;;;;;11.20;38.41;97775.84;6985645;28;20217;-85
2023/02/25 15:59:54;;;;;;;9.40;2.33;;;;;;;10.05;42.97;97804.34;6991873;28;20225;-82
2023/02/25 16:03:42;;;;;;;3.20;2.70;;;;;;;9.25;48.67;97820.69;6998604;28;20209;-81
2023/02/25 16:07:06;;;;;;;7.73;3.70;;;;;;;8.82;50.21;97790.22;6961975;28;20348;-81
2023/02/25 16:10:32;;;;;;;4.73;3.17;;;;;;;8.63;52.59;97818.06;6999259;28;20229;-81
2023/02/25 16:13:54;;;;;;;6.97;3.00;;;;;;;8.40;53.30;97841.13;7006924;28;20271;-81
2023/02/25 16:17:20;;;;;;;4.50;3.30;;;;;;;7.85;54.79;97857.84;7001348;28;20208;-80
2023/02/25 16:20:45;;;;;;;8.77;3.63;;;;;;;7.81;56.18;97857.47;6999332;28;20680;-82